DW0946 Weather Reports


Display with metric or nautical units.
time (UTC)temp
F
wind
direction
speed
MPH
gust
MPH
rain 1hr
in
rain 24hr
in
rain mn
in
humidity
%
barometer
mb
20190418221644 79 294 3.0 7.0 0.00 0.00 0.00 38 1027.9
20190418220209 79 300 2.0 7.0 0.00 0.00 0.00 39 1028.0
20190418214618 78 280 3.0 9.0 0.00 0.00 0.00 41 1028.3
20190418213229 78 274 3.0 7.0 0.00 0.00 0.00 43 1028.6
20190418211539 78 267 4.0 7.0 0.00 0.00 0.00 41 1028.9
20190418210123 77 287 4.0 9.0 0.00 0.00 0.00 39 1029.3
20190418204614 77 264 4.0 7.0 0.00 0.00 0.00 47 1029.3
20190418203105 76 294 3.0 9.0 0.00 0.00 0.00 47 1029.4
20190418201554 74 238 1.0 7.0 0.00 0.00 0.00 56 1029.5
20190418200046 73 269 4.0 8.0 0.00 0.00 0.00 55 1029.8
20190418194621 73 200 3.0 11.0 0.00 0.00 0.00 58 1030.0
20190418193032 74 302 5.0 9.0 0.00 0.00 0.00 55 1030.1
20190418191535 76 276 4.0 10.0 0.00 0.00 0.00 54 1030.1
20190418190021 76 264 3.0 6.0 0.00 0.00 0.00 53 1030.2
20190418184554 76 241 2.0 6.0 0.00 0.00 0.00 53 1030.2
20190418183013 76 262 1.0 7.0 0.00 0.00 0.00 54 1030.1
20190418181509 75 225 1.0 7.0 0.00 0.00 0.00 56 1030.1
20190418180011 74 219 3.0 5.0 0.00 0.00 0.00 57 1030.3
20190418174506 74 201 1.0 6.0 0.00 0.00 0.00 53 1030.2
20190418173008 73 176 0.0 5.0 0.00 0.00 0.00 54 1030.3
20190418171729 73 287 1.0 4.0 0.00 0.00 0.00 54 1030.3
20190418170133 71 262 2.0 5.0 0.00 0.00 0.00 55 1030.4
20190418164707 70 297 1.0 3.0 0.00 0.00 0.00 54 1030.3
20190418163228 69 203 1.0 3.0 0.00 0.00 0.00 56 1030.3
20190418161650 67 303 0.0 1.0 0.00 0.00 0.00 57 1030.4
20190418160115 65 325 0.0 1.0 0.00 0.00 0.00 60 1030.4
20190418154607 62 283 0.0 0.0 0.00 0.00 0.00 67 1030.6
20190418153058 61 238 0.0 1.0 0.00 0.00 0.00 72 1030.5
20190418151616 59 60 0.0 2.0 0.00 0.00 0.00 76 1030.5
20190418150045 57 351 0.0 1.0 0.00 0.00 0.00 78 1030.7
20190418144547 56 281 0.0 1.0 0.00 0.00 0.00 83 1030.7
20190418143051 54 311 0.0 1.0 0.00 0.00 0.00 84 1030.6
20190418141601 54 319 0.0 0.0 0.00 0.00 0.00 85 1030.6
20190418140044 53 318 0.0 1.0 0.00 0.00 0.00 85 1030.5
20190418134527 53 315 0.0 0.0 0.00 0.00 0.00 86 1030.5
20190418133041 53 319 0.0 0.0 0.00 0.00 0.00 86 1030.4
20190418131554 53 318 0.0 0.0 0.00 0.00 0.00 86 1030.6
20190418130029 53 314 0.0 0.0 0.00 0.00 0.00 86 1030.5
20190418124520 53 300 0.0 0.0 0.00 0.00 0.00 86 1030.4
20190418123027 53 15 0.0 0.0 0.00 0.00 0.00 86 1030.5
20190418121522 53 27 0.0 0.0 0.00 0.00 0.00 87 1030.5
20190418120027 53 124 0.0 0.0 0.00 0.00 0.00 89 1030.5
20190418114532 53 124 0.0 0.0 0.00 0.00 0.00 88 1030.7
20190418113039 53 267 0.0 0.0 0.00 0.00 0.00 88 1030.7
20190418111517 54 304 0.0 0.0 0.00 0.00 0.00 89 1030.5
20190418110023 54 309 0.0 0.0 0.00 0.00 0.00 91 1030.4
20190418104532 53 304 0.0 0.0 0.00 0.00 0.00 91 1030.2
20190418103020 53 252 0.0 0.0 0.00 0.00 0.00 91 1030.6
20190418101519 53 250 0.0 0.0 0.00 0.00 0.00 91 1030.7
20190418100007 53 247 0.0 0.0 0.00 0.00 0.00 91 1030.7
20190418094503 53 248 0.0 0.0 0.00 0.00 0.00 90 1031.0
20190418093001 53 214 0.0 0.0 0.00 0.00 0.00 90 1031.1
20190418090138 53 214 0.0 0.0 0.00 0.00 0.00 89 1031.5
20190418084853 53 214 0.0 0.0 0.00 0.00 0.00 89 1031.4
20190418083224 54 214 0.0 0.0 0.00 0.00 0.00 88 1031.4
20190418081624 54 214 0.0 0.0 0.00 0.00 0.00 90 1031.4
20190418080137 54 214 0.0 0.0 0.00 0.00 0.00 89 1031.4
20190418074715 54 214 0.0 0.0 0.00 0.00 0.00 88 1031.2
20190418073126 54 214 0.0 0.0 0.00 0.00 0.00 87 1031.0
20190418071631 55 214 0.0 0.0 0.00 0.00 0.00 86 1030.9
20190418070132 55 214 0.0 0.0 0.00 0.00 0.00 86 1030.8
20190418064742 56 214 0.0 0.0 0.00 0.00 0.00 87 1030.7
20190418063225 56 215 0.0 0.0 0.00 0.00 0.00 86 1030.6
20190418061605 56 166 0.0 0.0 0.00 0.00 0.00 87 1030.6
20190418060131 56 166 0.0 1.0 0.00 0.00 0.00 86 1030.6
20190418054632 56 141 0.0 0.0 0.00 0.00 0.00 85 1030.7
20190418053135 56 141 0.0 0.0 0.00 0.00 0.00 86 1030.6
20190418051616 57 141 0.0 0.0 0.00 0.00 0.00 86 1030.8
20190418050123 57 141 0.0 0.0 0.00 0.00 0.00 84 1031.1
20190418044640 57 141 0.0 0.0 0.00 0.00 0.00 84 1031.1
20190418043155 57 141 0.0 0.0 0.00 0.00 0.00 85 1031.1
20190418041645 57 139 0.0 0.0 0.00 0.00 0.00 85 1031.2
20190418040058 57 139 0.0 0.0 0.00 0.00 0.00 87 1031.4
20190418034708 57 139 0.0 0.0 0.00 0.00 0.00 87 1031.6
20190418033132 57 140 0.0 0.0 0.00 0.00 0.00 87 1031.6
20190418031553 58 141 0.0 0.0 0.00 0.00 0.00 86 1031.6
20190418030116 58 252 0.0 4.0 0.00 0.00 0.00 86 1031.8
20190418024541 59 242 2.0 5.0 0.00 0.00 0.00 84 1031.7
20190418023046 60 278 1.0 7.0 0.00 0.00 0.00 79 1031.0
20190418021623 63 270 2.0 5.0 0.00 0.00 0.00 72 1030.7
20190418020104 66 248 2.0 4.0 0.00 0.00 0.00 66 1030.4
20190418014609 68 215 2.0 5.0 0.00 0.00 0.00 63 1030.4
20190418013108 69 210 0.0 4.0 0.00 0.00 0.00 59 1030.1
20190418011557 69 253 1.0 4.0 0.00 0.00 0.00 59 1030.2
20190418010042 71 244 0.0 4.0 0.00 0.00 0.00 57 1030.2
20190418004526 69 265 1.0 5.0 0.00 0.00 0.00 60 1030.3
20190418003034 69 323 2.0 5.0 0.00 0.00 0.00 58 1030.3
20190418001534 69 287 1.0 6.0 0.00 0.00 0.00 57 1030.4
20190418000019 68 294 3.0 8.0 0.00 0.00 0.00 57 1030.4
20190417234532 68 240 3.0 7.0 0.00 0.00 0.00 62 1030.5
20190417233104 67 277 4.0 9.0 0.00 0.00 0.00 64 1030.7
20190417231524 67 267 5.0 10.0 0.00 0.00 0.00 66 1030.9
20190417230026 67 180 5.0 10.0 0.00 0.00 0.00 65 1030.7
20190417224521 67 260 5.0 13.0 0.00 0.00 0.00 67 1030.7
20190417223029 67 199 4.0 15.0 0.00 0.00 0.00 68 1030.6